createdAt,value
2017-07-12T00:01:09.533Z,19.00
2017-07-12T00:03:39.180Z,19.00
2017-07-12T00:06:08.061Z,19.00
2017-07-12T00:08:37.022Z,19.00
2017-07-12T00:11:06.842Z,19.00
2017-07-12T00:13:36.501Z,19.00
2017-07-12T00:16:05.394Z,18.90
2017-07-12T00:18:34.285Z,18.90
2017-07-12T00:21:03.169Z,18.90
2017-07-12T00:23:32.035Z,18.90
2017-07-12T00:26:00.912Z,18.90
2017-07-12T00:28:30.581Z,18.90
2017-07-12T00:30:59.457Z,18.90
2017-07-12T00:33:28.333Z,18.90
2017-07-12T00:35:57.188Z,18.90
2017-07-12T00:38:26.076Z,18.90
2017-07-12T00:40:54.923Z,18.90
2017-07-12T00:43:23.762Z,18.90
2017-07-12T00:45:52.649Z,18.90
2017-07-12T00:48:21.545Z,18.80
2017-07-12T00:50:51.194Z,18.80
2017-07-12T00:53:20.069Z,18.80
2017-07-12T00:55:48.967Z,18.80
2017-07-12T00:58:17.860Z,18.80
2017-07-12T01:00:46.775Z,18.80
2017-07-12T01:03:15.670Z,18.80
2017-07-12T01:05:44.557Z,18.70
2017-07-12T01:08:13.446Z,18.70
2017-07-12T01:10:42.320Z,18.60
2017-07-12T01:13:11.203Z,18.60
2017-07-12T01:15:40.073Z,18.50
2017-07-12T01:18:08.952Z,18.40
2017-07-12T01:20:37.823Z,18.30
2017-07-12T01:23:06.701Z,18.30
2017-07-12T01:25:35.556Z,18.30
2017-07-12T01:28:04.423Z,18.30
2017-07-12T01:30:33.313Z,18.30
2017-07-12T01:33:02.198Z,18.30
2017-07-12T01:35:31.856Z,18.20
2017-07-12T01:38:00.746Z,18.20
2017-07-12T01:40:29.630Z,18.20
2017-07-12T01:42:58.522Z,18.20
2017-07-12T01:45:27.417Z,18.20
2017-07-12T01:47:56.309Z,18.20
2017-07-12T01:50:25.195Z,18.20
2017-07-12T01:52:54.079Z,18.20
2017-07-12T01:55:22.974Z,18.20
2017-07-12T01:57:51.852Z,18.20
2017-07-12T02:00:20.736Z,18.10
2017-07-12T02:02:49.632Z,18.10
2017-07-12T02:05:18.532Z,18.00
2017-07-12T02:07:47.417Z,18.00
2017-07-12T02:10:16.283Z,18.00
2017-07-12T02:12:45.157Z,18.00
2017-07-12T02:15:14.038Z,18.00
2017-07-12T02:17:42.898Z,18.00
2017-07-12T02:20:11.795Z,18.00
2017-07-12T02:22:40.667Z,18.00
2017-07-12T02:25:10.330Z,17.90
2017-07-12T02:27:39.212Z,17.90
2017-07-12T02:30:08.110Z,17.90
2017-07-12T02:32:36.964Z,17.80
2017-07-12T02:35:05.848Z,17.70
2017-07-12T02:37:34.728Z,17.70
2017-07-12T02:40:04.406Z,17.70
2017-07-12T02:42:33.298Z,17.70
2017-07-12T02:45:02.181Z,17.70
2017-07-12T02:47:31.078Z,17.70
2017-07-12T02:49:59.945Z,17.70
2017-07-12T02:52:28.837Z,17.70
2017-07-12T02:54:57.718Z,17.70
2017-07-12T02:57:26.418Z,17.70
2017-07-12T02:59:55.316Z,17.70
2017-07-12T03:02:24.177Z,17.70
2017-07-12T03:04:53.059Z,17.70
2017-07-12T03:07:21.941Z,17.70
2017-07-12T03:09:50.876Z,17.70
2017-07-12T03:12:19.771Z,17.70
2017-07-12T03:14:48.674Z,17.60
2017-07-12T03:17:17.571Z,17.60
2017-07-12T03:19:46.426Z,17.50
2017-07-12T03:22:15.306Z,17.50
2017-07-12T03:24:44.180Z,17.50
2017-07-12T03:27:13.073Z,17.50
2017-07-12T03:29:42.737Z,17.40
2017-07-12T03:32:11.637Z,17.40
2017-07-12T03:34:40.588Z,17.40
2017-07-12T03:37:09.477Z,17.40
2017-07-12T03:39:49.461Z,17.40
2017-07-12T03:42:18.351Z,17.40
2017-07-12T03:44:47.252Z,17.40
2017-07-12T03:47:16.917Z,17.40
2017-07-12T03:49:45.778Z,17.40
2017-07-12T03:52:15.439Z,17.30
2017-07-12T03:54:44.318Z,17.30
2017-07-12T03:57:13.188Z,17.30
2017-07-12T03:59:42.851Z,17.40
2017-07-12T04:02:11.742Z,17.40
2017-07-12T04:04:40.624Z,17.40
2017-07-12T04:07:09.506Z,17.50
2017-07-12T04:09:38.356Z,17.50
2017-07-12T04:12:07.237Z,17.50
2017-07-12T04:14:36.134Z,17.50
2017-07-12T04:17:05.021Z,17.60
2017-07-12T04:19:34.678Z,17.60
2017-07-12T04:22:03.521Z,17.60
2017-07-12T04:24:33.184Z,17.60
2017-07-12T04:27:02.059Z,17.60
2017-07-12T04:29:30.951Z,17.60
2017-07-12T04:31:59.837Z,17.60
2017-07-12T04:34:28.734Z,17.60
2017-07-12T04:36:57.618Z,17.60
2017-07-12T04:39:26.512Z,17.60
2017-07-12T04:41:55.431Z,17.70
2017-07-12T04:44:24.309Z,17.60
2017-07-12T04:46:53.189Z,17.70
2017-07-12T04:49:21.897Z,17.70
2017-07-12T04:51:50.797Z,17.80
2017-07-12T04:54:19.685Z,17.80
2017-07-12T04:56:48.530Z,17.80
2017-07-12T04:59:17.414Z,17.80
2017-07-12T05:01:46.275Z,17.90
2017-07-12T05:04:15.165Z,17.90
2017-07-12T05:06:44.059Z,17.90
2017-07-12T05:09:12.940Z,18.00
2017-07-12T05:11:41.838Z,18.00
2017-07-12T05:14:10.725Z,18.00
2017-07-12T05:16:39.624Z,18.00
2017-07-12T05:19:08.497Z,18.10
2017-07-12T05:21:37.374Z,18.10
2017-07-12T05:24:06.260Z,18.10
2017-07-12T05:26:35.141Z,18.10
2017-07-12T05:29:03.997Z,18.10
2017-07-12T05:31:32.877Z,18.10
2017-07-12T05:34:01.760Z,18.20
2017-07-12T05:36:30.616Z,18.20
2017-07-12T05:38:59.509Z,18.20
2017-07-12T05:41:28.358Z,18.30
2017-07-12T05:43:57.233Z,18.30
2017-07-12T07:11:24.463Z,18.40
2017-07-12T07:13:53.366Z,19.50
2017-07-12T07:16:22.253Z,19.50
2017-07-12T07:18:51.136Z,19.60
2017-07-12T07:21:20.034Z,19.60
2017-07-12T07:23:48.941Z,19.70
2017-07-12T07:26:17.813Z,19.70
2017-07-12T07:28:46.684Z,19.70
2017-07-12T07:31:15.571Z,19.80
2017-07-12T07:33:44.462Z,19.80
2017-07-12T07:36:13.410Z,19.90
2017-07-12T07:38:42.501Z,19.90
2017-07-12T07:41:11.397Z,20.00
2017-07-12T07:43:40.278Z,20.00
2017-07-12T07:46:09.178Z,20.00
2017-07-12T07:48:38.070Z,20.00
2017-07-12T07:51:06.948Z,20.00
2017-07-12T07:53:35.838Z,20.10
2017-07-12T07:56:04.713Z,20.10
2017-07-12T07:58:33.585Z,20.10
2017-07-12T08:01:02.474Z,20.10
2017-07-12T08:03:31.383Z,20.20
2017-07-12T08:06:00.302Z,20.20
2017-07-12T08:08:29.195Z,20.30
2017-07-12T08:10:58.063Z,20.30
2017-07-12T08:13:26.950Z,20.40
2017-07-12T08:15:55.855Z,20.40
2017-07-12T08:18:24.780Z,20.50
2017-07-12T08:20:53.669Z,20.50
2017-07-12T08:23:23.338Z,20.70
2017-07-12T08:25:52.233Z,20.70
2017-07-12T08:28:21.107Z,20.80
2017-07-12T08:30:49.961Z,20.90
2017-07-12T08:33:18.844Z,21.00
2017-07-12T08:35:47.703Z,21.20
2017-07-12T08:38:16.669Z,21.30
2017-07-12T08:40:45.556Z,21.40
2017-07-12T08:43:14.452Z,21.60
2017-07-12T08:45:43.338Z,21.70
2017-07-12T08:48:12.216Z,21.80
2017-07-12T08:50:41.847Z,21.80
2017-07-12T08:53:10.724Z,21.80
2017-07-12T08:55:39.609Z,21.80
2017-07-12T08:58:08.496Z,21.80
2017-07-12T09:00:37.865Z,21.90
2017-07-12T09:03:06.754Z,22.00
2017-07-12T09:05:35.639Z,22.00
2017-07-12T09:08:04.518Z,22.10
2017-07-12T09:10:33.397Z,22.30
2017-07-12T09:13:02.295Z,22.40
2017-07-12T09:15:31.146Z,22.50
2017-07-12T09:18:00.813Z,22.70
2017-07-12T09:20:29.688Z,22.60
2017-07-12T09:22:58.579Z,22.70
2017-07-12T09:35:25.992Z,23.20
2017-07-12T09:37:54.887Z,23.20
2017-07-12T09:40:23.773Z,23.40
2017-07-12T09:42:52.668Z,23.70
2017-07-12T09:45:21.550Z,23.90
2017-07-12T09:47:50.433Z,24.00
2017-07-12T09:50:20.097Z,24.20
2017-07-12T09:52:48.993Z,24.20
2017-07-12T09:55:17.875Z,24.20
2017-07-12T09:57:46.717Z,24.30
2017-07-12T10:00:15.619Z,24.30
2017-07-12T10:02:44.505Z,24.20
2017-07-12T10:05:13.388Z,24.20
2017-07-12T10:07:42.274Z,24.20
2017-07-12T10:10:11.178Z,24.20
2017-07-12T10:12:40.066Z,24.20
2017-07-12T10:15:08.944Z,24.20
2017-07-12T10:17:38.602Z,24.40
2017-07-12T10:20:07.480Z,24.40
2017-07-12T10:22:36.360Z,24.40
2017-07-12T10:25:05.252Z,24.30
2017-07-12T10:27:34.142Z,24.20
2017-07-12T10:30:03.025Z,24.30
2017-07-12T10:32:31.920Z,24.50
2017-07-12T10:35:00.789Z,24.80
2017-07-12T10:37:29.674Z,24.90
2017-07-12T10:39:59.322Z,24.90
2017-07-12T10:42:28.183Z,24.90
2017-07-12T10:44:57.829Z,24.90
2017-07-12T10:47:26.720Z,24.90
2017-07-12T10:49:55.583Z,24.90
2017-07-12T10:52:25.231Z,25.20
2017-07-12T10:54:54.146Z,25.20
2017-07-12T10:57:23.041Z,25.50
2017-07-12T10:59:51.585Z,25.70
2017-07-12T11:02:20.213Z,25.60
2017-07-12T11:04:49.104Z,25.60
2017-07-12T11:07:18.001Z,25.50
2017-07-12T11:09:46.891Z,25.60
2017-07-12T11:12:15.789Z,25.60
2017-07-12T11:14:44.672Z,25.50
2017-07-12T11:17:13.556Z,25.40
2017-07-12T11:19:42.403Z,25.20
2017-07-12T11:22:11.284Z,25.00
2017-07-12T11:24:40.190Z,24.90
2017-07-12T11:27:09.074Z,24.70
2017-07-12T11:29:37.966Z,24.60
2017-07-12T11:32:06.864Z,24.50
2017-07-12T11:34:35.744Z,24.40
2017-07-12T11:37:04.628Z,24.40
2017-07-12T11:39:34.278Z,24.10
2017-07-12T11:42:03.183Z,24.10
2017-07-12T11:44:32.080Z,24.10
2017-07-12T11:47:00.977Z,24.10
2017-07-12T11:49:29.842Z,24.00
2017-07-12T11:51:58.728Z,24.00
2017-07-12T11:54:27.576Z,24.00
2017-07-12T11:56:57.245Z,23.90
2017-07-12T11:59:26.130Z,23.90
2017-07-12T12:01:55.033Z,23.90
2017-07-12T12:04:23.925Z,23.80
2017-07-12T12:06:52.821Z,23.70
2017-07-12T12:09:21.722Z,23.70
2017-07-12T12:11:50.577Z,23.60
2017-07-12T12:14:19.434Z,23.60
2017-07-12T12:16:48.330Z,23.60
2017-07-12T12:19:17.225Z,23.50
2017-07-12T12:21:47.878Z,23.40
2017-07-12T12:24:16.805Z,23.40
2017-07-12T12:26:46.326Z,23.40
2017-07-12T12:29:15.214Z,23.30
2017-07-12T12:31:44.113Z,23.20
2017-07-12T12:34:13.003Z,23.00
2017-07-12T12:36:41.905Z,22.80
2017-07-12T12:39:10.792Z,22.50
2017-07-12T12:41:39.643Z,22.20
2017-07-12T12:44:08.350Z,21.90
2017-07-12T12:46:37.303Z,21.80
2017-07-12T12:49:06.038Z,21.50
2017-07-12T12:51:34.920Z,21.30
2017-07-12T12:54:03.625Z,21.10
2017-07-12T12:56:32.480Z,20.90
2017-07-12T12:59:01.174Z,20.80
2017-07-12T13:01:30.065Z,20.70
2017-07-12T13:03:58.766Z,20.50
2017-07-12T13:06:27.624Z,20.40
2017-07-12T13:08:56.521Z,20.30
2017-07-12T13:11:25.410Z,20.20
2017-07-12T13:13:54.307Z,20.10
2017-07-12T13:16:23.197Z,20.00
2017-07-12T13:18:52.072Z,20.00
2017-07-12T13:21:20.961Z,20.00
2017-07-12T13:23:49.867Z,20.00
2017-07-12T13:26:18.751Z,20.10
2017-07-12T13:28:47.634Z,20.20
2017-07-12T13:31:16.520Z,20.20
2017-07-12T13:33:45.412Z,20.30
2017-07-12T13:36:14.283Z,20.40
2017-07-12T13:38:43.949Z,20.40
2017-07-12T13:41:12.830Z,20.40
2017-07-12T13:43:41.696Z,20.40
2017-07-12T13:46:10.593Z,20.40
2017-07-12T13:48:39.451Z,20.40
2017-07-12T13:51:08.334Z,20.40
2017-07-12T13:53:37.176Z,20.40
2017-07-12T13:56:06.068Z,20.40
2017-07-12T13:58:34.967Z,20.40
2017-07-12T14:01:03.835Z,20.40
2017-07-12T14:03:32.701Z,20.40
2017-07-12T14:06:02.352Z,20.40
2017-07-12T14:08:31.237Z,20.40
2017-07-12T14:11:00.126Z,20.40
2017-07-12T14:13:29.026Z,20.40
2017-07-12T14:15:57.884Z,20.40
2017-07-12T14:18:26.791Z,20.50
2017-07-12T14:20:55.696Z,20.40
2017-07-12T14:23:24.614Z,20.40
2017-07-12T14:25:53.510Z,20.50
2017-07-12T14:28:22.405Z,20.50
2017-07-12T14:30:51.294Z,20.50
2017-07-12T14:33:20.192Z,20.50
2017-07-12T14:35:49.090Z,20.50
2017-07-12T14:38:17.978Z,20.50
2017-07-12T14:40:46.876Z,20.50
2017-07-12T14:43:15.764Z,20.50
2017-07-12T14:45:44.650Z,20.40
2017-07-12T14:48:13.550Z,20.40
2017-07-12T14:50:42.411Z,20.40
2017-07-12T14:53:11.300Z,20.50
2017-07-12T14:55:40.216Z,20.60
2017-07-12T14:58:09.116Z,20.60
2017-07-12T15:00:38.012Z,20.70
2017-07-12T15:03:06.892Z,20.80
2017-07-12T15:05:35.786Z,20.90
2017-07-12T15:08:04.746Z,20.90
2017-07-12T15:10:33.624Z,20.90
2017-07-12T15:13:02.502Z,21.00
2017-07-12T15:15:32.174Z,21.00
2017-07-12T15:18:01.031Z,21.00
2017-07-12T15:20:29.934Z,21.00
2017-07-12T15:22:58.824Z,21.00
2017-07-12T15:25:27.708Z,21.00
2017-07-12T15:27:56.564Z,21.00
2017-07-12T15:30:25.429Z,20.90
2017-07-12T15:32:54.319Z,20.90
2017-07-12T15:35:23.200Z,20.80
2017-07-12T15:37:52.086Z,20.80
2017-07-12T15:40:20.991Z,20.70
2017-07-12T15:42:49.884Z,20.70
2017-07-12T15:45:18.790Z,20.70
2017-07-12T15:47:47.668Z,20.70
2017-07-12T15:50:16.573Z,20.60
2017-07-12T15:52:45.467Z,20.60
2017-07-12T15:55:14.363Z,20.60
2017-07-12T15:57:43.224Z,20.50
2017-07-12T16:00:12.107Z,20.50
2017-07-12T16:02:40.988Z,20.50
2017-07-12T16:05:09.868Z,20.50
2017-07-12T16:07:38.774Z,20.50
2017-07-12T16:10:07.664Z,20.50
2017-07-12T16:12:36.546Z,20.40
2017-07-12T16:15:05.395Z,20.50
2017-07-12T16:17:34.549Z,20.40
2017-07-12T16:20:03.428Z,20.50
2017-07-12T16:22:32.327Z,20.50
2017-07-12T16:25:01.293Z,20.50
2017-07-12T16:27:30.953Z,20.70
2017-07-12T16:29:59.832Z,20.60
2017-07-12T16:32:28.707Z,20.70
2017-07-12T16:34:57.565Z,20.70
2017-07-12T16:37:27.208Z,20.80
2017-07-12T16:39:56.105Z,20.80
2017-07-12T16:42:24.994Z,20.80
2017-07-12T16:44:53.873Z,20.90
2017-07-12T16:47:24.253Z,21.00
2017-07-12T16:49:53.140Z,21.10
2017-07-12T16:52:22.032Z,21.10
2017-07-12T16:54:51.491Z,21.20
2017-07-12T16:57:20.382Z,21.20
2017-07-12T16:59:49.281Z,21.20
2017-07-12T17:02:18.129Z,21.20
2017-07-12T17:04:47.786Z,21.20
2017-07-12T17:07:16.683Z,21.20
2017-07-12T17:09:45.569Z,21.20
2017-07-12T17:12:14.463Z,21.20
2017-07-12T17:14:43.446Z,21.20
2017-07-12T17:17:12.889Z,21.20
2017-07-12T17:19:41.783Z,21.20
2017-07-12T17:22:10.664Z,21.20
2017-07-12T17:24:39.556Z,21.20
2017-07-12T17:27:08.408Z,21.20
2017-07-12T17:29:37.246Z,21.30
2017-07-12T17:32:06.120Z,21.30
2017-07-12T17:34:35.021Z,21.30
2017-07-12T17:37:03.879Z,21.20
2017-07-12T17:39:32.775Z,21.20
2017-07-12T17:42:01.752Z,21.20
2017-07-12T17:44:30.799Z,21.20
2017-07-12T17:46:59.680Z,21.10
2017-07-12T17:49:28.574Z,21.20
2017-07-12T17:51:57.469Z,21.30
2017-07-12T17:54:26.362Z,21.20
2017-07-12T17:56:55.249Z,21.30
2017-07-12T17:59:24.146Z,21.30
2017-07-12T18:01:53.025Z,21.30
2017-07-12T18:04:21.926Z,21.30
2017-07-12T18:06:51.456Z,21.30
2017-07-12T18:09:20.336Z,21.30
2017-07-12T18:11:49.226Z,21.30
2017-07-12T18:14:18.116Z,21.20
2017-07-12T18:16:46.998Z,21.20
2017-07-12T18:19:15.893Z,21.20
2017-07-12T18:21:44.786Z,21.20
2017-07-12T18:24:13.669Z,21.20
2017-07-12T18:26:42.513Z,21.20
2017-07-12T18:29:11.373Z,21.10
2017-07-12T18:31:40.252Z,21.10
2017-07-12T18:34:09.136Z,21.10
2017-07-12T18:36:38.824Z,21.00
2017-07-12T18:39:07.692Z,21.00
2017-07-12T18:41:37.397Z,21.10
2017-07-12T18:44:06.275Z,21.00
2017-07-12T18:46:35.935Z,21.00
2017-07-12T18:49:04.833Z,21.00
2017-07-12T18:51:33.711Z,21.00
2017-07-12T18:54:02.562Z,20.90
2017-07-12T18:56:32.227Z,20.90
2017-07-12T18:59:00.829Z,20.90
2017-07-12T19:01:29.722Z,20.90
2017-07-12T19:03:58.604Z,21.00
2017-07-12T19:06:27.489Z,21.00
2017-07-12T19:08:56.396Z,20.90
2017-07-12T19:11:25.291Z,20.90
2017-07-12T19:13:54.290Z,20.80
2017-07-12T19:16:23.135Z,20.90
2017-07-12T19:18:52.019Z,20.90
2017-07-12T19:21:20.901Z,20.80
2017-07-12T19:23:49.788Z,20.80
2017-07-12T19:26:19.451Z,20.70
2017-07-12T19:28:48.343Z,20.70
2017-07-12T19:31:17.247Z,20.70
2017-07-12T19:33:46.098Z,20.70
2017-07-12T19:36:14.981Z,20.60
2017-07-12T19:38:43.865Z,20.60
2017-07-12T19:41:12.749Z,20.60
2017-07-12T19:43:42.704Z,20.50
2017-07-12T19:46:11.612Z,20.30
2017-07-12T19:48:40.511Z,20.10
2017-07-12T19:51:09.398Z,20.00
2017-07-12T19:53:38.287Z,19.90
2017-07-12T19:56:07.143Z,19.80
2017-07-12T19:58:36.003Z,19.70
2017-07-12T20:01:05.735Z,19.50
2017-07-12T20:03:34.890Z,19.50
2017-07-12T20:06:04.583Z,19.50
2017-07-12T20:08:33.477Z,19.50
2017-07-12T20:11:02.357Z,19.10
2017-07-12T20:13:31.246Z,18.70
2017-07-12T20:16:00.143Z,18.20
2017-07-12T20:18:29.019Z,17.70
2017-07-12T20:20:57.896Z,17.30
2017-07-12T20:23:26.783Z,17.10
2017-07-12T20:25:55.669Z,16.80
2017-07-12T20:28:24.548Z,16.60
2017-07-12T20:30:54.204Z,16.30
2017-07-12T20:33:23.058Z,16.30
2017-07-12T20:35:51.941Z,16.20
2017-07-12T20:38:21.558Z,16.10
2017-07-12T20:40:51.168Z,16.00
2017-07-12T20:43:20.054Z,16.00
2017-07-12T20:45:49.705Z,15.90
2017-07-12T20:48:18.585Z,15.90
2017-07-12T20:50:48.056Z,15.90
2017-07-12T20:53:17.700Z,15.80
2017-07-12T20:55:46.577Z,15.80
2017-07-12T20:58:15.472Z,15.80
2017-07-12T21:00:44.312Z,15.80
2017-07-12T21:03:13.192Z,15.80
2017-07-12T21:05:42.164Z,15.80
2017-07-12T21:08:11.040Z,15.80
2017-07-12T21:10:39.931Z,15.90
2017-07-12T21:13:08.813Z,15.90
2017-07-12T21:15:37.701Z,15.80
2017-07-12T21:18:06.600Z,15.80
2017-07-12T21:20:35.942Z,15.80
2017-07-12T21:23:04.828Z,15.80
2017-07-12T21:25:33.722Z,15.90
2017-07-12T21:28:02.619Z,15.90
2017-07-12T21:30:32.207Z,16.00
2017-07-12T21:33:02.445Z,16.00
2017-07-12T21:35:31.373Z,16.00
2017-07-12T21:38:00.332Z,16.00
2017-07-12T21:40:29.528Z,15.90
2017-07-12T21:42:58.413Z,15.90
2017-07-12T21:45:27.291Z,15.90
2017-07-12T21:47:56.183Z,15.90
2017-07-12T21:50:25.094Z,15.90
2017-07-12T21:52:53.972Z,15.90
2017-07-12T21:55:39.588Z,15.90
2017-07-12T21:58:25.749Z,15.90
2017-07-12T22:01:11.458Z,15.90
